Time;durP1;ratioP1;P1;durP2;ratioP2;P2;SDS_P1;SDS_P2;PMS_P1;PMS_P2;Temp;Humidity;BMP_temperature;BMP_pressure;BME280_temperature;BME280_humidity;BME280_pressure;Samples;Min_cycle;Max_cycle;Signal;HPM_P1;HPM_P2
2022/03/31 00:00:38;;;;;;;27.30;13.45;;;;;;;18.96;47.32;98824.09;5087814;28;20024;-70
2022/03/31 00:03:06;;;;;;;25.60;13.32;;;;;;;18.95;47.39;98820.66;5084562;28;20413;-72
2022/03/31 00:05:32;;;;;;;25.92;13.52;;;;;;;18.96;47.63;98810.91;5087581;28;20028;-70
2022/03/31 00:08:03;;;;;;;25.10;12.88;;;;;;;18.93;47.44;98799.00;5078792;28;20031;-70
2022/03/31 00:10:32;;;;;;;27.02;12.73;;;;;;;18.94;47.34;98802.44;5083667;28;20093;-71
2022/03/31 00:12:59;;;;;;;25.70;11.80;;;;;;;18.94;47.38;98799.78;5086804;28;20033;-70
2022/03/31 00:15:29;;;;;;;25.50;13.20;;;;;;;18.94;47.18;98800.59;5085275;28;20032;-70
2022/03/31 00:17:55;;;;;;;25.48;12.73;;;;;;;18.94;47.29;98789.25;5090249;28;20028;-70
2022/03/31 00:20:21;;;;;;;23.25;11.57;;;;;;;18.94;47.20;98789.25;5088998;28;20090;-71
2022/03/31 00:22:46;;;;;;;24.67;12.85;;;;;;;18.94;47.33;98783.97;5097164;28;20482;-69
2022/03/31 00:25:13;;;;;;;26.13;13.05;;;;;;;18.93;47.34;98777.88;5087285;28;20459;-72
2022/03/31 00:27:39;;;;;;;23.20;11.40;;;;;;;18.93;47.35;98772.59;5089698;28;20024;-71
2022/03/31 00:30:06;;;;;;;25.58;12.63;;;;;;;18.94;47.25;98770.75;5081817;28;20111;-71
2022/03/31 00:32:32;;;;;;;26.63;12.95;;;;;;;18.92;46.86;98771.00;5078798;28;20086;-70
2022/03/31 00:34:58;;;;;;;27.02;12.07;;;;;;;18.93;47.14;98761.25;5082502;28;20082;-71
2022/03/31 00:37:23;;;;;;;26.80;13.20;;;;;;;18.92;47.27;98759.66;5088082;28;20059;-70
2022/03/31 00:39:49;;;;;;;23.30;13.02;;;;;;;18.89;47.09;98748.56;5097353;28;20029;-69
2022/03/31 00:42:15;;;;;;;21.58;11.40;;;;;;;18.88;47.13;98739.03;5098904;28;20110;-71
2022/03/31 00:44:42;;;;;;;24.60;11.35;;;;;;;18.88;47.13;98732.97;5087391;28;20028;-72
2022/03/31 00:47:08;;;;;;;22.67;11.63;;;;;;;18.87;47.09;98729.53;5084317;28;20043;-70
2022/03/31 00:49:34;;;;;;;24.75;12.07;;;;;;;18.87;47.09;98724.25;5080879;28;20027;-70
2022/03/31 00:52:00;;;;;;;19.95;11.35;;;;;;;18.86;47.22;98712.09;5088244;28;20035;-70
2022/03/31 00:54:27;;;;;;;22.95;11.50;;;;;;;18.85;47.19;98705.22;5096743;28;20027;-69
2022/03/31 00:56:53;;;;;;;22.50;11.07;;;;;;;18.85;47.21;98693.88;5088545;28;20033;-70
2022/03/31 00:59:19;;;;;;;23.40;11.15;;;;;;;18.85;46.94;98693.88;5075172;28;20112;-72
2022/03/31 01:01:47;;;;;;;23.50;11.27;;;;;;;18.83;47.11;98686.19;5071984;28;20796;-70
2022/03/31 01:04:14;;;;;;;18.42;9.90;;;;;;;18.82;47.26;98687.22;5084114;28;20065;-71
2022/03/31 01:06:44;;;;;;;19.27;10.20;;;;;;;18.82;47.19;98681.97;5089648;28;20046;-70
2022/03/31 01:09:10;;;;;;;18.50;10.23;;;;;;;18.81;47.23;98676.91;5103165;28;20094;-69
2022/03/31 01:11:35;;;;;;;19.10;10.25;;;;;;;18.81;47.24;98675.09;5086738;28;20068;-71
2022/03/31 01:14:01;;;;;;;18.17;10.10;;;;;;;18.79;47.22;98671.88;5089614;28;20032;-70
2022/03/31 01:16:30;;;;;;;17.63;10.40;;;;;;;18.80;47.25;98667.41;5093415;28;20030;-72
2022/03/31 01:18:55;;;;;;;20.88;10.93;;;;;;;18.79;47.21;98669.25;5087173;28;20051;-72
2022/03/31 01:21:21;;;;;;;17.55;9.05;;;;;;;18.79;47.21;98665.81;5107218;28;20039;-72
2022/03/31 01:23:47;;;;;;;18.55;9.05;;;;;;;18.79;47.23;98666.59;5095568;28;20345;-71
2022/03/31 01:26:13;;;;;;;17.33;9.18;;;;;;;18.78;47.07;98654.47;5093087;28;20475;-72
2022/03/31 01:28:41;;;;;;;19.75;9.85;;;;;;;18.78;47.09;98654.47;5097258;28;20516;-71
2022/03/31 01:31:06;;;;;;;19.83;9.75;;;;;;;18.79;47.06;98652.63;5093911;28;20047;-69
2022/03/31 01:33:32;;;;;;;20.23;10.57;;;;;;;18.79;47.20;98645.50;5087797;28;20201;-70
2022/03/31 01:35:58;;;;;;;17.65;9.18;;;;;;;18.79;47.12;98642.88;5091217;28;20418;-70
2022/03/31 01:38:24;;;;;;;20.13;9.45;;;;;;;18.81;47.00;98648.69;5087466;28;20031;-70
2022/03/31 01:40:50;;;;;;;18.73;9.40;;;;;;;18.81;47.00;98632.88;5089886;28;20024;-71
2022/03/31 01:43:15;;;;;;;15.75;8.45;;;;;;;18.81;47.00;98632.88;5091218;28;21397;-70
2022/03/31 01:45:41;;;;;;;16.35;8.95;;;;;;;18.83;46.85;98632.63;5088933;28;20056;-69
2022/03/31 01:48:06;;;;;;;17.85;8.65;;;;;;;18.83;47.15;98625.50;5087440;28;20038;-71
2022/03/31 01:50:32;;;;;;;15.77;7.88;;;;;;;18.83;47.00;98620.25;5094436;28;20059;-71
2022/03/31 01:52:57;;;;;;;16.13;8.50;;;;;;;18.83;47.12;98622.88;5089245;28;20078;-71
2022/03/31 01:55:23;;;;;;;15.73;9.20;;;;;;;18.83;46.97;98614.97;5087257;28;20501;-70
2022/03/31 01:57:49;;;;;;;17.02;8.57;;;;;;;18.84;46.91;98607.84;5086869;28;20039;-71
2022/03/31 02:00:15;;;;;;;14.90;7.85;;;;;;;18.84;46.99;98611.28;5088563;28;20391;-70
2022/03/31 02:02:43;;;;;;;17.05;8.65;;;;;;;18.85;46.86;98606.81;5087769;28;20020;-70
2022/03/31 02:05:09;;;;;;;17.48;8.57;;;;;;;18.84;47.02;98600.72;5089319;28;20028;-69
2022/03/31 02:07:36;;;;;;;14.02;8.15;;;;;;;18.84;47.09;98594.66;5087221;28;20379;-71
2022/03/31 02:10:03;;;;;;;18.52;8.80;;;;;;;18.83;47.07;98595.69;5088733;28;20039;-72
2022/03/31 02:12:29;;;;;;;12.88;7.50;;;;;;;18.81;47.10;98590.66;5370444;22;20126;-42
2022/03/31 02:14:54;;;;;;;15.75;8.32;;;;;;;18.80;46.94;98588.25;5068895;28;20456;-41
2022/03/31 02:17:19;;;;;;;14.55;8.25;;;;;;;18.79;46.84;98589.31;5069133;28;20036;-40
2022/03/31 02:19:45;;;;;;;13.10;8.07;;;;;;;18.77;47.07;98581.63;5068786;28;20051;-41
2022/03/31 02:22:10;;;;;;;13.75;7.80;;;;;;;18.77;47.02;98581.63;5069073;28;20148;-41
2022/03/31 02:24:36;;;;;;;13.00;7.03;;;;;;;18.76;47.08;98582.66;5069076;28;20465;-41
2022/03/31 02:27:03;;;;;;;13.93;7.80;;;;;;;18.75;47.14;98575.78;5068740;28;20017;-41
2022/03/31 02:29:29;;;;;;;13.23;6.80;;;;;;;18.75;47.10;98570.53;5068614;28;20032;-41
2022/03/31 02:31:54;;;;;;;14.25;7.07;;;;;;;18.75;47.01;98578.44;5068834;28;20040;-42
2022/03/31 02:34:20;;;;;;;15.98;7.32;;;;;;;18.75;47.13;98570.53;5068488;28;20032;-41
2022/03/31 02:36:46;;;;;;;15.77;8.05;;;;;;;18.74;47.09;98566.28;5068527;28;20221;-42
2022/03/31 02:39:12;;;;;;;11.30;7.00;;;;;;;18.75;47.19;98559.97;5068700;28;20028;-40
2022/03/31 02:41:38;;;;;;;10.43;6.93;;;;;;;18.75;47.19;98556.53;5068664;28;20383;-41
2022/03/31 02:44:06;;;;;;;13.10;7.70;;;;;;;18.74;47.08;98558.38;5068390;28;20437;-42
2022/03/31 02:46:32;;;;;;;10.40;6.70;;;;;;;18.74;47.13;98557.56;5068664;28;20024;-40
2022/03/31 02:48:59;;;;;;;14.65;7.15;;;;;;;18.75;47.06;98546.78;5068660;28;20044;-41
2022/03/31 02:51:25;;;;;;;11.73;6.50;;;;;;;18.75;46.95;98541.50;5068407;28;20056;-40
2022/03/31 02:56:35;;;;;;;10.82;6.45;;;;;;;18.73;46.93;98533.03;5068532;28;20453;-42
2022/03/31 02:59:01;;;;;;;10.65;6.20;;;;;;;18.73;46.96;98526.97;5068077;28;20032;-40
2022/03/31 03:01:30;;;;;;;13.40;6.72;;;;;;;18.73;46.91;98529.59;5068165;28;20401;-40
2022/03/31 03:03:57;;;;;;;12.70;7.20;;;;;;;18.72;46.81;98515.59;5059931;28;20044;-42
2022/03/31 03:06:23;;;;;;;12.57;6.07;;;;;;;18.72;46.87;98517.44;5063107;28;20111;-41
2022/03/31 03:08:49;;;;;;;15.40;7.07;;;;;;;18.71;46.80;98518.50;5055199;28;20115;-42
2022/03/31 03:11:17;;;;;;;12.45;6.35;;;;;;;18.69;46.90;98508.19;5047565;28;20164;-41
2022/03/31 03:13:46;;;;;;;11.23;6.15;;;;;;;18.69;47.08;98505.53;5055363;28;20426;-41
2022/03/31 03:16:12;;;;;;;12.90;6.82;;;;;;;18.69;46.99;98502.91;5066256;28;20028;-41
2022/03/31 03:18:39;;;;;;;12.82;6.10;;;;;;;18.68;47.08;98501.31;5065714;28;20260;-41
2022/03/31 03:21:07;;;;;;;13.07;6.50;;;;;;;18.68;47.11;98493.41;5066547;28;20059;-41
2022/03/31 03:23:33;;;;;;;12.07;6.28;;;;;;;18.67;46.91;98486.53;5053893;28;20029;-41
2022/03/31 03:26:01;;;;;;;11.45;5.85;;;;;;;18.66;47.01;98484.94;5056907;28;20424;-41
2022/03/31 03:28:27;;;;;;;10.05;5.90;;;;;;;18.66;46.93;98486.78;5048437;28;20468;-42
2022/03/31 03:30:53;;;;;;;11.55;6.03;;;;;;;18.66;47.04;98494.69;5055127;28;20028;-41
2022/03/31 03:33:19;;;;;;;9.40;5.63;;;;;;;18.64;46.93;98494.94;5060379;28;20636;-42
2022/03/31 03:35:45;;;;;;;9.63;5.32;;;;;;;18.65;47.00;98496.53;5029521;28;20041;-42
2022/03/31 03:38:11;;;;;;;11.93;6.20;;;;;;;18.64;46.90;98494.94;5047501;28;20476;-41
2022/03/31 03:40:36;;;;;;;11.63;6.45;;;;;;;18.64;46.92;98481.75;5049220;28;20127;-40
2022/03/31 03:43:02;;;;;;;10.43;5.35;;;;;;;18.63;46.96;98474.88;5049547;28;20033;-41
2022/03/31 03:45:27;;;;;;;13.27;6.00;;;;;;;18.62;46.93;98468.00;5064474;28;20033;-42
2022/03/31 03:47:53;;;;;;;8.77;5.35;;;;;;;18.62;46.80;98468.00;5049313;28;20441;-41
2022/03/31 03:50:18;;;;;;;9.48;5.13;;;;;;;18.64;46.93;98465.13;5065549;28;20031;-43
2022/03/31 03:52:45;;;;;;;12.75;5.80;;;;;;;18.64;46.92;98462.47;5066277;28;20048;-40
2022/03/31 03:55:10;;;;;;;11.20;4.85;;;;;;;18.65;46.93;98454.31;5056967;28;20028;-42
2022/03/31 03:57:36;;;;;;;9.68;5.70;;;;;;;18.66;46.92;98450.66;5064714;28;20118;-41
2022/03/31 04:00:03;;;;;;;9.68;5.22;;;;;;;18.67;46.90;98454.88;5058204;28;20082;-41
2022/03/31 04:02:29;;;;;;;8.18;4.55;;;;;;;18.67;46.92;98443.53;5064949;28;20045;-42
2022/03/31 04:04:54;;;;;;;10.27;4.88;;;;;;;18.67;46.66;98444.31;5049844;28;20040;-41
2022/03/31 04:07:20;;;;;;;11.90;6.30;;;;;;;18.69;46.84;98433.53;5046819;28;20060;-42
2022/03/31 04:09:46;;;;;;;14.45;4.57;;;;;;;18.68;46.99;98419.53;5049905;28;20503;-41
2022/03/31 04:12:11;;;;;;;12.05;5.97;;;;;;;18.69;47.12;98421.13;5065733;28;20174;-42
2022/03/31 04:14:36;;;;;;;8.07;5.13;;;;;;;18.69;47.26;98407.94;5052943;28;20035;-41
2022/03/31 04:17:02;;;;;;;10.85;5.03;;;;;;;18.69;47.17;98407.94;5046700;28;20059;-40
2022/03/31 04:19:28;;;;;;;9.18;4.80;;;;;;;18.70;47.42;98401.63;5047352;28;20031;-41
2022/03/31 04:21:53;;;;;;;10.05;4.78;;;;;;;18.70;47.46;98399.00;5064969;28;20113;-41
2022/03/31 04:24:19;;;;;;;13.98;4.88;;;;;;;18.72;47.48;98396.13;5048166;28;20039;-41
2022/03/31 04:26:44;;;;;;;8.88;4.25;;;;;;;18.69;47.67;98386.84;5047620;28;20124;-42
2022/03/31 04:29:10;;;;;;;11.85;4.70;;;;;;;18.70;47.70;98390.28;5060632;28;20455;-42
2022/03/31 04:31:45;;;;;;;11.82;4.97;;;;;;;18.67;47.53;98388.13;5065391;28;20121;-41
2022/03/31 04:34:14;;;;;;;7.32;4.05;;;;;;;18.67;47.40;98374.94;5058805;28;20043;-41
2022/03/31 04:36:40;;;;;;;10.77;4.18;;;;;;;18.66;47.52;98371.53;5029263;28;20033;-40
2022/03/31 04:39:06;;;;;;;11.68;4.25;;;;;;;18.73;48.23;98374.75;5058676;28;20028;-39
2022/03/31 04:41:32;;;;;;;19.33;7.50;;;;;;;18.82;51.38;98368.00;5053774;28;20028;-40
2022/03/31 04:43:57;;;;;;;11.10;4.00;;;;;;;18.84;50.81;98363.28;5066331;28;20026;-42
2022/03/31 04:46:23;;;;;;;9.18;4.07;;;;;;;18.79;49.79;98355.31;5065680;28;20060;-45
2022/03/31 04:48:48;;;;;;;15.50;5.25;;;;;;;18.77;49.56;98346.06;5040029;28;20118;-41
2022/03/31 04:51:14;;;;;;;9.40;3.50;;;;;;;18.74;49.51;98343.91;5030294;28;20521;-45
2022/03/31 04:53:40;;;;;;;8.35;3.15;;;;;;;18.72;49.23;98338.88;5056753;28;20026;-40
2022/03/31 04:56:05;;;;;;;6.68;3.65;;;;;;;18.69;48.63;98338.56;5064605;28;20063;-41
2022/03/31 04:58:31;;;;;;;12.95;3.60;;;;;;;18.69;48.77;98339.38;5070677;22;20535;-40
2022/03/31 05:00:56;;;;;;;8.95;3.22;;;;;;;18.68;48.53;98329.88;5063625;28;20032;-43
2022/03/31 05:03:22;;;;;;;9.98;3.28;;;;;;;18.70;48.29;98343.59;5065778;28;20043;-40
2022/03/31 05:05:48;;;;;;;9.27;3.40;;;;;;;18.70;48.02;98333.06;5066104;28;20024;-45
2022/03/31 05:08:14;;;;;;;7.32;3.17;;;;;;;18.70;47.90;98334.91;5065198;28;20404;-42
2022/03/31 05:10:39;;;;;;;7.40;3.63;;;;;;;18.70;47.68;98342.81;5065477;28;20036;-39
2022/03/31 05:13:05;;;;;;;8.73;3.42;;;;;;;18.70;47.60;98340.97;5066536;28;20021;-41
2022/03/31 05:15:31;;;;;;;8.75;3.22;;;;;;;18.69;47.42;98335.94;5064940;28;20040;-41
2022/03/31 05:17:56;;;;;;;9.63;3.45;;;;;;;18.69;47.44;98343.84;5066313;28;20028;-42
2022/03/31 05:20:22;;;;;;;10.07;3.08;;;;;;;18.68;47.36;98348.34;5065847;28;20032;-45
2022/03/31 05:22:48;;;;;;;7.30;2.95;;;;;;;18.68;47.27;98347.53;5065978;28;20085;-46
2022/03/31 05:25:14;;;;;;;8.57;2.72;;;;;;;18.66;47.45;98345.16;5065649;28;20024;-41
2022/03/31 05:27:44;;;;;;;7.22;2.63;;;;;;;18.66;47.32;98354.91;5065815;28;20153;-42
2022/03/31 05:30:12;;;;;;;5.93;2.85;;;;;;;18.64;47.34;98349.06;5066346;28;20067;-43
2022/03/31 05:32:37;;;;;;;6.72;3.22;;;;;;;18.64;47.25;98347.22;5064711;28;20510;-42
2022/03/31 05:35:03;;;;;;;7.05;3.22;;;;;;;18.63;47.20;98350.13;5066086;28;20032;-43
2022/03/31 05:37:29;;;;;;;10.02;3.28;;;;;;;18.62;47.34;98349.31;5066422;28;20433;-44
2022/03/31 05:39:54;;;;;;;11.88;3.60;;;;;;;18.62;47.24;98351.97;5065947;28;20067;-43
2022/03/31 05:42:19;;;;;;;5.65;2.30;;;;;;;18.61;47.16;98345.09;5065282;28;20036;-41
2022/03/31 05:44:45;;;;;;;7.47;2.83;;;;;;;18.60;47.27;98335.59;5069501;28;20291;-41
2022/03/31 05:47:10;;;;;;;6.40;2.92;;;;;;;18.60;47.26;98332.13;5069192;28;20600;-41
2022/03/31 05:49:37;;;;;;;8.15;2.70;;;;;;;18.59;47.29;98331.31;5068585;28;20032;-43
2022/03/31 05:52:03;;;;;;;5.18;2.78;;;;;;;18.58;47.22;98332.38;5068734;28;20511;-42
2022/03/31 05:54:30;;;;;;;5.00;2.88;;;;;;;18.58;47.20;98335.00;5069271;28;20036;-42
2022/03/31 05:56:56;;;;;;;9.02;3.13;;;;;;;18.57;47.21;98333.41;5069353;28;20108;-44
2022/03/31 05:59:22;;;;;;;7.00;2.88;;;;;;;18.56;47.28;98332.59;5069180;28;20123;-39
2022/03/31 06:01:47;;;;;;;5.35;2.85;;;;;;;18.56;47.15;98327.34;5068647;28;20097;-41
2022/03/31 06:04:16;;;;;;;6.97;3.28;;;;;;;18.55;47.16;98319.66;5069633;28;20473;-43
2022/03/31 06:06:41;;;;;;;5.93;2.55;;;;;;;18.54;47.07;98313.59;5069335;28;20511;-42
2022/03/31 06:09:07;;;;;;;6.50;2.97;;;;;;;18.54;47.17;98310.16;5069462;28;20028;-43
2022/03/31 06:11:32;;;;;;;5.25;2.25;;;;;;;18.55;47.18;98311.75;5068149;28;20097;-42
2022/03/31 06:13:58;;;;;;;7.90;2.45;;;;;;;18.55;46.99;98317.84;5069026;28;20040;-40
2022/03/31 06:16:23;;;;;;;6.38;2.78;;;;;;;18.58;46.92;98321.81;5068237;28;20036;-39
2022/03/31 06:18:49;;;;;;;3.78;1.92;;;;;;;18.58;46.90;98313.91;5068972;28;20031;-43
2022/03/31 06:21:16;;;;;;;7.70;3.17;;;;;;;18.58;46.89;98312.06;5067782;28;20021;-41
2022/03/31 06:23:41;;;;;;;5.78;2.65;;;;;;;18.59;46.97;98312.84;5068703;28;20033;-40
2022/03/31 06:26:07;;;;;;;6.50;2.75;;;;;;;18.60;46.66;98298.66;5069383;28;20052;-40
2022/03/31 06:28:33;;;;;;;5.35;2.33;;;;;;;18.61;46.61;98305.53;5069063;28;20041;-43
2022/03/31 06:30:59;;;;;;;5.43;2.70;;;;;;;18.60;46.58;98306.56;5067660;28;20037;-41
2022/03/31 06:33:24;;;;;;;6.07;2.92;;;;;;;18.62;46.58;98303.69;5067733;28;20111;-43
2022/03/31 06:35:50;;;;;;;6.30;2.20;;;;;;;18.61;46.65;98305.53;5068904;28;20030;-42
2022/03/31 06:38:16;;;;;;;4.28;2.35;;;;;;;18.62;46.62;98303.69;5050500;28;20384;-41
2022/03/31 06:41:06;;;;;;;5.28;2.75;;;;;;;18.62;46.58;98295.78;5068519;28;20048;-45
2022/03/31 06:43:26;;;;;;;4.43;2.28;;;;;;;18.59;46.62;98291.75;5068080;28;20029;-43
2022/03/31 06:45:52;;;;;;;8.32;2.90;;;;;;;18.58;46.78;98295.44;5068670;28;20395;-39
2022/03/31 06:48:17;;;;;;;5.05;2.15;;;;;;;18.58;46.71;98306.00;5067882;28;20021;-44
2022/03/31 06:50:43;;;;;;;6.65;2.17;;;;;;;18.57;46.81;98315.75;5068469;28;20036;-46
2022/03/31 06:53:08;;;;;;;4.38;1.88;;;;;;;18.55;46.62;98317.03;5068120;28;20048;-42
2022/03/31 06:55:33;;;;;;;5.22;2.50;;;;;;;18.55;46.62;98311.75;5067493;28;20095;-45
2022/03/31 06:57:59;;;;;;;5.43;2.33;;;;;;;18.55;46.67;98311.75;5067896;28;20055;-42
2022/03/31 07:00:25;;;;;;;8.50;2.90;;;;;;;18.54;47.06;98316.25;5068189;28;20029;-41
2022/03/31 07:02:50;;;;;;;6.15;2.45;;;;;;;18.57;47.85;98317.59;5067521;28;20036;-44
2022/03/31 07:05:16;;;;;;;5.05;2.95;;;;;;;18.63;48.17;98323.75;5067728;28;20472;-43
2022/03/31 07:07:41;;;;;;;9.00;3.35;;;;;;;18.68;48.73;98329.06;5066923;28;20043;-41
2022/03/31 07:10:07;;;;;;;8.32;2.83;;;;;;;18.69;48.96;98320.13;5067859;28;20029;-43
2022/03/31 07:12:37;;;;;;;9.98;2.72;;;;;;;18.66;48.69;98315.34;5067581;28;20320;-40
2022/03/31 07:15:02;;;;;;;4.78;1.60;;;;;;;18.65;48.71;98311.91;5067687;28;20040;-43
2022/03/31 07:17:28;;;;;;;7.28;2.45;;;;;;;18.63;48.51;98314.00;5066631;28;20115;-41
2022/03/31 07:19:53;;;;;;;3.58;1.63;;;;;;;18.58;48.67;98311.25;5067465;28;20047;-42
2022/03/31 07:22:19;;;;;;;5.95;2.47;;;;;;;18.58;48.67;98309.44;5067775;28;20028;-44
2022/03/31 07:24:44;;;;;;;5.38;2.28;;;;;;;18.58;48.71;98314.69;5067495;28;20052;-41
2022/03/31 07:27:10;;;;;;;5.68;1.63;;;;;;;18.58;48.67;98312.06;5066855;28;20272;-38
2022/03/31 07:29:35;;;;;;;2.53;1.48;;;;;;;18.56;48.39;98303.59;5067221;28;20459;-41
2022/03/31 07:32:00;;;;;;;6.00;1.90;;;;;;;18.58;48.41;98308.63;5067014;28;20036;-43
2022/03/31 07:34:26;;;;;;;8.18;1.95;;;;;;;18.63;49.09;98310.56;5066679;28;20028;-41
2022/03/31 07:36:53;;;;;;;4.40;1.88;;;;;;;18.62;49.16;98301.06;5066628;28;20595;-48
2022/03/31 07:39:19;;;;;;;4.63;1.73;;;;;;;18.63;49.00;98298.16;5067334;28;20032;-43
2022/03/31 07:41:44;;;;;;;2.80;1.08;;;;;;;18.60;48.72;98293.38;5067476;28;20039;-44
2022/03/31 07:44:10;;;;;;;7.03;1.60;;;;;;;18.58;48.71;98290.16;5066314;28;20048;-41
2022/03/31 07:46:36;;;;;;;6.45;1.42;;;;;;;18.56;48.75;98293.06;5067128;28;20487;-43
2022/03/31 07:49:02;;;;;;;6.10;1.95;;;;;;;18.55;48.71;98295.94;5066626;28;20508;-42
2022/03/31 07:51:28;;;;;;;5.30;1.48;;;;;;;18.55;48.64;98299.38;5067352;28;20287;-42
2022/03/31 07:53:54;;;;;;;8.48;1.88;;;;;;;18.55;48.49;98303.84;5067012;28;20048;-41
2022/03/31 07:56:19;;;;;;;5.68;1.98;;;;;;;18.54;48.60;98296.97;5066151;28;20028;-39
2022/03/31 07:58:45;;;;;;;5.55;2.75;;;;;;;18.53;48.36;98298.03;5066652;28;20048;-42
2022/03/31 08:01:11;;;;;;;6.95;1.65;;;;;;;18.52;48.36;98301.72;5067347;28;20043;-41
2022/03/31 08:03:37;;;;;;;2.85;1.45;;;;;;;18.51;48.29;98310.66;5066433;28;20135;-40
2022/03/31 08:06:03;;;;;;;3.13;1.50;;;;;;;18.50;47.98;98315.13;5065541;28;20032;-40
2022/03/31 08:08:28;;;;;;;2.58;1.25;;;;;;;18.49;48.04;98316.19;5066741;28;20048;-41
2022/03/31 08:10:54;;;;;;;6.32;1.38;;;;;;;18.49;48.09;98323.28;5063879;28;20032;-44
2022/03/31 08:13:24;;;;;;;8.75;1.73;;;;;;;18.48;47.90;98311.94;5059176;28;20048;-44
2022/03/31 08:15:53;;;;;;;7.20;1.42;;;;;;;18.46;48.07;98314.03;5062925;28;20036;-42
2022/03/31 08:18:19;;;;;;;4.40;1.60;;;;;;;18.48;47.99;98311.16;5051276;28;20032;-41
2022/03/31 08:20:45;;;;;;;4.70;2.03;;;;;;;18.47;48.08;98318.28;5049909;28;20039;-42
2022/03/31 08:23:11;;;;;;;4.22;1.38;;;;;;;18.47;47.90;98325.38;5055268;28;20039;-43
2022/03/31 08:25:41;;;;;;;4.80;1.67;;;;;;;18.46;47.92;98323.78;5057252;28;20086;-41
2022/03/31 08:28:10;;;;;;;3.85;1.40;;;;;;;18.46;47.80;98324.59;5050218;28;20109;-45
2022/03/31 08:31:00;;;;;;;2.80;1.08;;;;;;;18.45;47.67;98322.19;5050924;28;20140;-42
2022/03/31 08:33:26;;;;;;;3.85;1.20;;;;;;;18.48;47.57;98316.44;5048551;28;20132;-40
2022/03/31 08:35:51;;;;;;;3.40;1.38;;;;;;;18.48;47.44;98305.88;5030030;28;20048;-42
2022/03/31 08:38:17;;;;;;;7.18;1.42;;;;;;;18.50;47.28;98317.78;5055346;28;20082;-42
2022/03/31 08:40:43;;;;;;;7.38;1.25;;;;;;;18.50;47.27;98316.97;5059215;28;20128;-41
2022/03/31 08:43:08;;;;;;;6.25;1.30;;;;;;;18.52;47.08;98320.16;5048235;28;20051;-40
2022/03/31 08:45:38;;;;;;;4.38;1.45;;;;;;;18.52;47.07;98314.88;5048957;28;20020;-40
2022/03/31 08:48:04;;;;;;;3.70;0.93;;;;;;;18.53;47.13;98308.56;5052432;28;20043;-43
2022/03/31 08:50:36;;;;;;;2.88;1.10;;;;;;;18.52;46.89;98306.97;5054546;28;20028;-41
2022/03/31 08:53:03;;;;;;;3.97;1.60;;;;;;;18.53;46.90;98308.56;5039882;28;20025;-45
2022/03/31 08:55:32;;;;;;;4.25;1.00;;;;;;;18.52;46.87;98301.72;5044209;28;20040;-40
2022/03/31 08:57:58;;;;;;;3.65;1.10;;;;;;;18.53;46.80;98290.13;5043704;28;20411;-42
2022/03/31 09:28:44;;;;;;;3.25;1.25;;;;;;;18.34;46.67;98241.44;5064126;28;20041;-43
2022/03/31 09:31:10;;;;;;;4.20;0.73;;;;;;;18.35;46.67;98233.28;5057472;28;20501;-39
2022/03/31 09:33:36;;;;;;;2.65;1.00;;;;;;;18.37;46.59;98233.81;5051943;28;20033;-40
2022/03/31 09:36:13;;;;;;;2.22;0.73;;;;;;;18.36;46.50;98228.78;5062543;28;20058;-41
2022/03/31 10:03:06;;;;;;;2.30;1.08;;;;;;;18.29;46.24;98223.72;5057623;28;20101;-43
2022/03/31 10:05:33;;;;;;;2.25;0.77;;;;;;;18.33;46.27;98226.66;5053537;28;20036;-43
2022/03/31 10:08:00;;;;;;;1.45;0.60;;;;;;;18.33;46.14;98230.09;5065918;28;20036;-42
2022/03/31 10:11:31;;;;;;;;;;;;;;;18.21;46.93;98226.78;5023011;28;20172;-43
2022/03/31 10:14:12;;;;;;;1.90;0.60;;;;;;;18.23;46.77;98224.72;4994430;28;19921;-40
2022/03/31 10:16:44;;;;;;;1.20;0.50;;;;;;;18.27;46.40;98220.53;5026785;28;20038;-45
2022/03/31 10:19:10;;;;;;;1.92;0.60;;;;;;;18.28;46.39;98223.97;5005448;28;21321;-42
2022/03/31 10:21:36;;;;;;;1.92;0.55;;;;;;;18.30;46.25;98229.78;5003777;28;20022;-41
2022/03/31 10:26:57;;;;;;;2.05;0.40;;;;;;;18.26;46.24;98212.88;5029714;28;20129;-42
2022/03/31 10:29:22;;;;;;;1.50;0.70;;;;;;;18.28;46.30;98216.06;5016162;28;20424;-45
2022/03/31 10:31:48;;;;;;;1.77;0.57;;;;;;;18.27;46.17;98211.84;5046248;28;20096;-41
2022/03/31 10:34:15;;;;;;;2.20;0.50;;;;;;;18.27;46.27;98209.19;5027016;28;20080;-42
2022/03/31 10:36:47;;;;;;;1.95;0.50;;;;;;;18.24;46.18;98203.38;5009104;28;20037;-43
2022/03/31 10:39:22;;;;;;;1.27;0.57;;;;;;;18.23;46.38;98193.09;4999649;28;20030;-44
2022/03/31 10:42:00;;;;;;;3.07;0.73;;;;;;;18.22;46.31;98194.13;5007728;28;20035;-42
2022/03/31 10:44:26;;;;;;;2.55;0.57;;;;;;;18.24;46.44;98178.84;5003098;28;20670;-46
2022/03/31 10:47:00;;;;;;;1.38;0.60;;;;;;;18.22;46.54;98176.47;5002471;28;20136;-43
2022/03/31 10:49:26;;;;;;;2.20;0.60;;;;;;;18.24;46.92;98163.84;5016451;28;20439;-40
2022/03/31 10:51:53;;;;;;;4.32;0.52;;;;;;;18.30;47.73;98166.53;5002008;28;20082;-42
2022/03/31 10:54:33;;;;;;;1.83;0.40;;;;;;;18.30;48.13;98158.63;4989881;28;20044;-43
2022/03/31 10:57:17;;;;;;;4.80;0.80;;;;;;;18.33;48.42;98161.56;5011617;28;20056;-43
2022/03/31 10:59:45;;;;;;;4.45;0.80;;;;;;;18.38;49.53;98158.16;5006577;28;20509;-40
2022/03/31 11:02:23;;;;;;;2.60;0.90;;;;;;;18.43;49.50;98158.22;5017600;28;20441;-40
2022/03/31 11:04:52;;;;;;;1.45;0.40;;;;;;;18.47;49.22;98152.16;5002242;28;20022;-41
2022/03/31 11:07:20;;;;;;;5.65;0.85;;;;;;;18.54;49.28;98149.31;5000161;28;20049;-42
2022/03/31 11:09:47;;;;;;;3.47;0.80;;;;;;;18.56;49.52;98142.75;4999493;28;20076;-38
2022/03/31 11:12:28;;;;;;;2.47;0.75;;;;;;;18.62;51.47;98134.91;5003333;28;20373;-40
2022/03/31 11:15:01;;;;;;;1.55;0.68;;;;;;;18.65;51.24;98132.56;5017023;28;20085;-39
2022/03/31 11:17:28;;;;;;;2.58;0.70;;;;;;;18.68;51.45;98132.06;5017817;28;20037;-40
2022/03/31 11:19:55;;;;;;;2.08;0.60;;;;;;;18.70;51.77;98126.53;4998335;28;20033;-41
2022/03/31 11:22:27;;;;;;;3.78;0.47;;;;;;;18.70;52.24;98114.13;5007063;28;20564;-41
2022/03/31 11:25:07;;;;;;;22.42;1.02;;;;;;;18.77;52.83;98114.72;5009367;28;20030;-40
2022/03/31 11:27:38;;;;;;;3.80;0.70;;;;;;;18.97;58.88;98113.22;5010432;28;20412;-41
2022/03/31 11:30:25;;;;;;;6.75;0.93;;;;;;;19.29;62.39;98116.59;5010905;28;20036;-47
2022/03/31 11:32:53;;;;;;;4.55;0.98;;;;;;;19.55;66.28;98115.63;4999683;28;20045;-42
2022/03/31 11:35:21;;;;;;;6.05;0.90;;;;;;;19.79;66.86;98110.69;4995431;28;20049;-41
2022/03/31 11:37:48;;;;;;;2.67;0.60;;;;;;;19.91;66.69;98110.44;4995300;28;20419;-40
2022/03/31 11:40:20;;;;;;;2.80;0.55;;;;;;;19.97;64.24;98108.59;4993363;28;20151;-38
2022/03/31 11:42:46;;;;;;;5.90;0.40;;;;;;;19.79;60.46;98115.97;4994707;28;20550;-44
2022/03/31 11:45:33;;;;;;;3.95;0.50;;;;;;;19.54;57.40;98113.25;4995864;28;20388;-44
2022/03/31 11:48:22;;;;;;;4.60;0.43;;;;;;;19.37;55.86;98113.44;4991138;28;20576;-40
2022/03/31 11:50:58;;;;;;;1.83;0.38;;;;;;;19.24;54.95;98108.63;5000380;28;20538;-41
2022/03/31 11:53:31;;;;;;;2.63;0.50;;;;;;;19.17;54.31;98108.06;5010271;28;20033;-43
2022/03/31 11:56:04;;;;;;;0.95;0.28;;;;;;;19.12;54.12;98113.31;4985145;28;20034;-43
2022/03/31 11:58:33;;;;;;;7.40;1.10;;;;;;;19.06;53.92;98101.16;4994108;28;20045;-43
2022/03/31 12:00:59;;;;;;;1.55;0.30;;;;;;;19.02;53.44;98097.44;5002078;28;20164;-41
2022/03/31 12:03:36;;;;;;;1.30;0.40;;;;;;;19.00;52.36;98102.16;4994210;28;20117;-46
2022/03/31 12:06:04;;;;;;;2.88;0.30;;;;;;;18.97;52.26;98085.00;5021210;28;20130;-41
2022/03/31 12:08:30;;;;;;;2.85;0.50;;;;;;;18.96;52.15;98090.53;4994734;28;20653;-42
2022/03/31 12:10:56;;;;;;;7.50;1.13;;;;;;;18.95;53.07;98088.94;4998168;28;20053;-42
2022/03/31 12:13:24;;;;;;;3.40;0.57;;;;;;;18.94;53.15;98084.72;4991674;28;20750;-44
2022/03/31 12:16:05;;;;;;;2.75;0.70;;;;;;;18.91;53.04;98083.38;4995283;28;20562;-39
2022/03/31 12:18:31;;;;;;;5.88;0.30;;;;;;;18.96;53.15;98082.63;4999205;28;20243;-41
2022/03/31 12:21:02;;;;;;;61.45;13.27;;;;;;;19.00;52.95;98075.78;5006263;28;20178;-39
2022/03/31 12:23:27;;;;;;;26.40;6.30;;;;;;;18.99;52.56;98079.47;5007345;28;20022;-42
2022/03/31 12:25:54;;;;;;;8.38;2.60;;;;;;;18.97;52.26;98078.94;4994273;28;20053;-40
2022/03/31 12:28:23;;;;;;;7.07;0.82;;;;;;;18.95;51.81;98078.38;5000571;28;20029;-40